Time;durP1;ratioP1;P1;durP2;ratioP2;P2;SDS_P1;SDS_P2;PMS_P1;PMS_P2;Temp;Humidity;BMP_temperature;BMP_pressure;BME280_temperature;BME280_humidity;BME280_pressure;Samples;Min_cycle;Max_cycle;Signal;HPM_P1;HPM_P2
2022/05/18 00:00:14;;;;;;;5.30;4.90;;;;;;;-146.40;100.00;61907.72;4755119;30;20466;-76
2022/05/18 00:02:40;;;;;;;6.60;6.20;;;;;;;-146.40;100.00;61907.72;4744747;30;20191;-75
2022/05/18 00:05:06;;;;;;;6.10;5.70;;;;;;;-146.40;100.00;61907.72;4747623;30;20456;-75
2022/05/18 00:07:32;;;;;;;6.43;6.00;;;;;;;-146.40;100.00;61907.72;4747747;30;20214;-75
2022/05/18 00:09:57;;;;;;;7.50;6.00;;;;;;;-146.40;100.00;61907.72;4739467;30;20822;-75
2022/05/18 00:12:24;;;;;;;6.40;5.60;;;;;;;-146.40;100.00;61907.72;4762655;30;20533;-75
2022/05/18 00:14:50;;;;;;;7.07;6.60;;;;;;;-146.40;100.00;61907.72;4758598;30;20191;-75
2022/05/18 00:17:15;;;;;;;6.47;6.00;;;;;;;-146.40;100.00;61907.72;4757962;30;20468;-75
2022/05/18 00:19:41;;;;;;;7.07;6.60;;;;;;;-146.40;100.00;61907.72;4746146;30;20559;-75
2022/05/18 00:22:06;;;;;;;6.83;6.33;;;;;;;-146.40;100.00;61907.72;4755419;30;20202;-75
2022/05/18 00:24:32;;;;;;;6.30;5.90;;;;;;;-146.40;100.00;61907.72;4763181;30;20394;-75
2022/05/18 00:26:57;;;;;;;7.33;5.40;;;;;;;-146.40;100.00;61907.72;4748975;30;20243;-74
2022/05/18 00:29:23;;;;;;;6.33;5.93;;;;;;;23.30;nan;94396.50;4745791;30;20192;-75
2022/05/18 00:31:49;;;;;;;6.50;6.10;;;;;;;23.23;nan;94393.34;4756517;30;20191;-75
2022/05/18 00:34:16;;;;;;;6.50;6.07;;;;;;;22.25;nan;94393.91;4762981;30;20268;-75
2022/05/18 00:36:42;;;;;;;7.27;6.77;;;;;;;22.54;nan;94401.25;4749994;30;20233;-74
2022/05/18 00:39:08;;;;;;;7.30;6.73;;;;;;;22.56;nan;94399.13;4766199;30;20445;-75
2022/05/18 00:41:33;;;;;;;7.43;6.93;;;;;;;23.06;nan;94405.19;4750538;30;20547;-75
2022/05/18 00:43:59;;;;;;;7.60;7.10;;;;;;;23.37;nan;94403.09;4765793;30;20223;-75
2022/05/18 00:46:25;;;;;;;7.47;6.87;;;;;;;23.23;nan;94406.69;4766508;30;20204;-75
2022/05/18 00:48:53;;;;;;;7.80;7.30;;;;;;;22.55;nan;94410.84;4754760;30;20227;-75
2022/05/18 00:51:31;;;;;;;8.00;7.40;;;;;;;22.76;nan;94408.84;4757039;30;20488;-75
2022/05/18 00:54:21;;;;;;;7.87;7.23;;;;;;;22.68;nan;94407.56;4765930;30;20469;-76
2022/05/18 00:56:55;;;;;;;7.77;7.27;;;;;;;23.15;nan;94408.88;4758573;30;20446;-74
2022/05/18 00:59:26;;;;;;;7.73;7.20;;;;;;;22.83;nan;94420.03;4749344;30;20448;-75
2022/05/18 01:01:52;;;;;;;7.50;6.90;;;;;;;22.30;nan;94404.56;4761899;30;20811;-75
2022/05/18 01:04:18;;;;;;;9.20;8.50;;;;;;;22.72;nan;94413.16;4758008;30;20520;-76
2022/05/18 01:07:04;;;;;;;7.30;6.80;;;;;;;22.42;nan;94410.38;4748381;30;20516;-74
2022/05/18 01:09:35;;;;;;;8.33;7.63;;;;;;;22.63;nan;94409.47;4755989;30;20195;-76
2022/05/18 01:12:02;;;;;;;6.50;6.10;;;;;;;22.49;nan;94417.28;4766191;30;20418;-75
2022/05/18 01:14:33;;;;;;;7.23;6.53;;;;;;;22.85;nan;94412.53;4748843;30;20504;-75
2022/05/18 01:16:59;;;;;;;7.90;7.30;;;;;;;22.98;nan;94405.78;4759087;30;20457;-75
2022/05/18 01:19:38;;;;;;;8.00;7.40;;;;;;;22.46;nan;94410.63;4748302;30;20903;-76
2022/05/18 01:22:14;;;;;;;7.03;6.53;;;;;;;22.56;nan;94410.56;4739759;30;20450;-74
2022/05/18 01:24:44;;;;;;;6.57;6.07;;;;;;;22.23;nan;94396.84;4762467;30;20485;-75
2022/05/18 01:27:10;;;;;;;7.03;6.43;;;;;;;21.97;nan;94398.00;4759997;30;20449;-75
2022/05/18 01:29:36;;;;;;;7.80;7.30;;;;;;;22.16;nan;94396.34;4762826;30;20442;-75
2022/05/18 01:32:05;;;;;;;7.50;6.90;;;;;;;22.92;nan;94390.88;4748084;30;20211;-75
2022/05/18 01:34:34;;;;;;;7.00;6.57;;;;;;;22.59;nan;94387.88;4754833;30;20292;-75
2022/05/18 01:37:00;;;;;;;7.70;6.93;;;;;;;22.22;nan;94379.25;4762011;30;20453;-75
2022/05/18 01:39:48;;;;;;;6.93;6.43;;;;;;;22.33;nan;94377.38;4737220;30;20446;-75
2022/05/18 01:42:33;;;;;;;6.73;6.10;;;;;;;22.43;nan;94381.84;4765398;30;20481;-73
2022/05/18 01:44:58;;;;;;;7.13;6.63;;;;;;;22.16;nan;94376.88;4748674;30;20468;-75
2022/05/18 01:47:24;;;;;;;6.47;6.07;;;;;;;22.53;nan;94373.78;4762488;30;20429;-75
2022/05/18 01:49:51;;;;;;;6.80;6.30;;;;;;;21.94;nan;94382.56;4747281;30;20223;-76
2022/05/18 01:52:17;;;;;;;7.13;6.60;;;;;;;22.45;nan;94378.91;4759342;30;20212;-75
2022/05/18 01:54:45;;;;;;;7.87;7.00;;;;;;;22.21;nan;94371.50;4746106;30;20449;-74
2022/05/18 01:57:12;;;;;;;7.30;6.60;;;;;;;21.93;nan;94364.97;4730957;30;20259;-75
2022/05/18 01:59:38;;;;;;;6.73;6.23;;;;;;;21.81;nan;94358.06;4747329;30;20447;-75
2022/05/18 02:02:06;;;;;;;6.23;5.83;;;;;;;22.06;nan;94364.38;4755168;30;20454;-75
2022/05/18 02:04:33;;;;;;;5.50;5.10;;;;;;;21.98;nan;94359.63;4747549;30;20485;-75
2022/05/18 02:06:59;;;;;;;5.90;5.47;;;;;;;22.19;nan;94368.31;4764999;30;20425;-75
2022/05/18 02:09:26;;;;;;;5.97;5.47;;;;;;;21.99;nan;94366.56;4748603;30;20461;-75
2022/05/18 02:11:52;;;;;;;6.50;6.00;;;;;;;22.14;nan;94371.00;4762757;30;20445;-76
2022/05/18 02:14:17;;;;;;;6.00;5.60;;;;;;;22.71;nan;94372.34;4754052;30;20452;-75
2022/05/18 02:16:43;;;;;;;5.67;5.27;;;;;;;22.45;nan;94365.56;4747668;30;20199;-75
2022/05/18 02:19:09;;;;;;;5.80;5.37;;;;;;;22.68;nan;94356.09;4748893;30;20200;-75
2022/05/18 02:21:34;;;;;;;5.43;5.03;;;;;;;22.71;nan;94353.66;4764706;30;20210;-75
2022/05/18 02:24:00;;;;;;;5.27;4.80;;;;;;;23.00;nan;94360.91;4748740;30;20237;-75
2022/05/18 02:26:25;;;;;;;4.90;4.37;;;;;;;22.99;nan;94354.78;4733806;30;20227;-75
2022/05/18 02:28:51;;;;;;;3.70;3.40;;;;;;;22.60;nan;94357.47;4765073;30;20199;-75
2022/05/18 02:31:16;;;;;;;4.90;4.00;;;;;;;21.95;nan;94337.00;4745848;30;20204;-75
2022/05/18 02:33:42;;;;;;;3.70;3.50;;;;;;;22.23;nan;94356.84;4747506;30;20192;-75
2022/05/18 02:36:10;;;;;;;3.90;3.60;;;;;;;22.18;nan;94340.09;4758151;30;20190;-75
2022/05/18 02:38:37;;;;;;;4.30;4.00;;;;;;;22.81;nan;94345.56;4764010;30;20195;-75
2022/05/18 02:41:03;;;;;;;5.13;4.20;;;;;;;22.51;nan;94348.47;4740358;30;20925;-75
2022/05/18 02:43:29;;;;;;;4.77;4.43;;;;;;;22.59;nan;94355.88;4763198;30;20470;-74
2022/05/18 02:46:01;;;;;;;3.63;3.33;;;;;;;22.48;nan;94355.16;4764651;30;20437;-75
2022/05/18 02:48:26;;;;;;;5.30;4.80;;;;;;;22.37;nan;94359.75;4743936;30;20450;-75
2022/05/18 02:50:52;;;;;;;4.37;4.07;;;;;;;22.74;nan;94353.09;4756728;30;20502;-76
2022/05/18 02:53:17;;;;;;;5.90;4.30;;;;;;;23.50;nan;94353.53;4747524;30;20254;-75
2022/05/18 02:58:27;;;;;;;5.40;4.90;;;;;;;23.70;nan;94343.75;4746188;30;20246;-75
2022/05/18 03:00:52;;;;;;;5.43;5.03;;;;;;;23.08;nan;94351.53;4761912;30;20456;-75
2022/05/18 03:03:18;;;;;;;5.30;4.90;;;;;;;23.57;nan;94354.00;4748343;30;20212;-75
2022/05/18 03:05:43;;;;;;;5.20;4.80;;;;;;;23.41;nan;94359.78;4749655;30;20194;-75
2022/05/18 03:08:08;;;;;;;7.13;4.83;;;;;;;22.52;nan;94358.03;4762243;30;20228;-75
2022/05/18 03:10:34;;;;;;;5.40;4.90;;;;;;;23.84;nan;94365.25;4750192;30;20227;-74
2022/05/18 03:12:59;;;;;;;6.20;5.70;;;;;;;23.05;nan;94376.94;4764598;30;20198;-74
2022/05/18 03:15:25;;;;;;;5.13;4.73;;;;;;;23.15;nan;94373.38;4763915;30;20191;-74
2022/05/18 03:17:52;;;;;;;6.37;5.77;;;;;;;23.48;nan;94381.63;4764292;30;20198;-74
2022/05/18 03:25:45;;;;;;;6.30;5.70;;;;;;;23.54;nan;94381.31;4751804;30;20529;-75
2022/05/18 03:28:11;;;;;;;6.80;6.23;;;;;;;24.42;nan;94386.47;4763399;30;20473;-75
2022/05/18 03:30:36;;;;;;;5.83;5.43;;;;;;;23.32;nan;94386.31;4758200;30;20199;-74
2022/05/18 03:33:03;;;;;;;5.40;5.00;;;;;;;23.75;nan;94373.88;4759909;30;20204;-74
2022/05/18 03:35:29;;;;;;;5.57;5.17;;;;;;;23.81;nan;94385.34;4749658;30;20433;-74
2022/05/18 03:37:54;;;;;;;6.77;6.20;;;;;;;23.39;nan;94390.25;4760577;30;20442;-75
2022/05/18 03:40:20;;;;;;;5.50;5.10;;;;;;;23.63;nan;94388.69;4752444;30;20243;-75
2022/05/18 03:42:45;;;;;;;7.23;6.03;;;;;;;23.52;nan;94393.34;4767686;30;20227;-75
2022/05/18 03:45:11;;;;;;;6.50;6.00;;;;;;;23.26;nan;94400.78;4774210;30;20211;-74
2022/05/18 03:47:36;;;;;;;6.90;5.90;;;;;;;23.24;nan;94402.91;4758599;30;20203;-75
2022/05/18 03:50:02;;;;;;;6.03;5.53;;;;;;;23.49;nan;94402.72;4766703;30;20238;-75
2022/05/18 03:52:28;;;;;;;6.50;5.90;;;;;;;23.65;nan;94405.25;4761801;30;20218;-75
2022/05/18 03:54:53;;;;;;;7.30;6.60;;;;;;;23.13;nan;94411.03;4747721;30;20437;-75
2022/05/18 03:57:19;;;;;;;6.13;5.63;;;;;;;24.09;nan;94406.94;4748051;30;20214;-75
2022/05/18 03:59:44;;;;;;;6.50;6.00;;;;;;;23.97;nan;94400.09;4742024;30;20196;-75
2022/05/18 04:02:10;;;;;;;6.83;6.27;;;;;;;24.20;nan;94411.06;4744762;30;20263;-76
2022/05/18 04:04:35;;;;;;;5.83;5.43;;;;;;;23.74;nan;94408.88;4760689;30;20306;-75
2022/05/18 04:07:01;;;;;;;6.27;5.67;;;;;;;23.81;nan;94406.72;4743360;30;20738;-76
2022/05/18 04:09:27;;;;;;;6.83;6.13;;;;;;;24.35;nan;94402.88;4745486;30;20227;-75
2022/05/18 04:11:52;;;;;;;5.90;5.50;;;;;;;24.51;nan;94400.84;4764456;30;20258;-76
2022/05/18 04:14:17;;;;;;;5.73;5.23;;;;;;;23.46;nan;94413.94;4749424;30;20188;-74
2022/05/18 04:16:48;;;;;;;9.70;5.80;;;;;;;23.87;nan;94410.91;4754723;30;20210;-75
2022/05/18 04:19:14;;;;;;;6.90;5.50;;;;;;;24.05;nan;94416.59;4765245;30;20195;-74
2022/05/18 04:21:39;;;;;;;7.43;6.83;;;;;;;23.93;nan;94417.81;4749187;30;20941;-75
2022/05/18 04:24:05;;;;;;;7.70;7.00;;;;;;;23.50;nan;94427.53;4766838;30;20215;-75
2022/05/18 04:26:30;;;;;;;6.80;6.30;;;;;;;23.96;nan;94425.25;4760062;30;20609;-75
2022/05/18 04:28:56;;;;;;;6.90;6.40;;;;;;;23.39;nan;94416.97;4766456;30;20339;-75
2022/05/18 04:31:21;;;;;;;7.27;6.67;;;;;;;24.07;nan;94419.78;4750393;30;20199;-75
2022/05/18 04:33:47;;;;;;;7.23;6.70;;;;;;;24.20;nan;94421.78;4766397;30;20219;-75
2022/05/18 04:36:12;;;;;;;8.33;6.67;;;;;;;24.38;nan;94419.41;4766406;30;20250;-75
2022/05/18 04:38:38;;;;;;;8.97;7.23;;;;;;;23.76;nan;94422.75;4749593;30;20234;-75
2022/05/18 04:41:03;;;;;;;7.53;6.87;;;;;;;24.36;nan;94415.16;4756187;30;20208;-75
2022/05/18 04:43:32;;;;;;;8.80;8.00;;;;;;;24.70;nan;94419.56;4749284;30;20283;-76
2022/05/18 04:45:58;;;;;;;9.13;7.07;;;;;;;24.00;nan;94435.38;4748444;30;20227;-75
2022/05/18 04:48:24;;;;;;;8.47;7.70;;;;;;;24.01;nan;94421.72;4748282;30;20788;-75
2022/05/18 04:50:50;;;;;;;7.77;7.07;;;;;;;24.05;nan;94427.31;4746457;30;20326;-75
2022/05/18 04:53:17;;;;;;;8.03;7.33;;;;;;;23.69;nan;94419.63;4748413;30;20438;-75
2022/05/18 04:55:43;;;;;;;8.50;7.63;;;;;;;23.95;nan;94428.22;4756481;30;20208;-75
2022/05/18 04:58:09;;;;;;;8.60;7.90;;;;;;;24.16;nan;94423.44;4762532;30;20954;-75
2022/05/18 05:00:37;;;;;;;9.27;7.47;;;;;;;24.25;nan;94428.97;4738695;30;20441;-75
2022/05/18 05:03:03;;;;;;;9.17;8.37;;;;;;;25.05;nan;94433.53;4751911;30;20566;-75
2022/05/18 05:05:28;;;;;;;8.70;7.90;;;;;;;24.32;nan;94430.22;4748392;30;20450;-75
2022/05/18 05:07:55;;;;;;;10.07;9.27;;;;;;;24.28;nan;94428.38;4758946;30;20508;-75
2022/05/18 05:10:21;;;;;;;11.20;9.90;;;;;;;24.64;nan;94430.63;4744070;30;21075;-75
2022/05/18 05:12:47;;;;;;;10.57;9.53;;;;;;;24.11;nan;94420.81;4742567;30;20446;-76
2022/05/18 05:15:13;;;;;;;11.20;10.10;;;;;;;23.62;nan;94443.19;4764036;30;20516;-75
2022/05/18 05:17:42;;;;;;;11.20;10.10;;;;;;;23.95;nan;94434.34;4748518;30;20207;-75
2022/05/18 05:20:08;;;;;;;18.07;11.43;;;;;;;24.26;nan;94428.66;4749711;30;20439;-76
2022/05/18 05:22:33;;;;;;;12.00;10.70;;;;;;;24.69;nan;94442.06;4763557;30;20942;-75
2022/05/18 05:25:00;;;;;;;12.70;11.57;;;;;;;23.95;nan;94442.38;4765198;30;20484;-75
2022/05/18 05:27:26;;;;;;;13.50;12.30;;;;;;;24.27;nan;94435.59;4744170;30;20208;-75
2022/05/18 05:29:51;;;;;;;12.83;9.93;;;;;;;23.91;nan;94444.03;4755089;30;20541;-75
2022/05/18 05:32:17;;;;;;;12.20;9.40;;;;;;;23.35;nan;94449.84;4763692;30;20210;-75
2022/05/18 05:34:42;;;;;;;16.10;9.20;;;;;;;23.53;nan;94457.16;4758049;30;20195;-76
2022/05/18 05:37:08;;;;;;;21.37;12.30;;;;;;;24.32;nan;94456.94;4753078;30;20224;-75
2022/05/18 05:39:34;;;;;;;10.73;9.60;;;;;;;23.85;nan;94450.50;4752988;30;20252;-75
2022/05/18 05:41:59;;;;;;;10.73;9.63;;;;;;;23.12;nan;94457.47;4756883;30;20656;-75
2022/05/18 05:44:25;;;;;;;10.23;8.93;;;;;;;22.91;nan;94464.78;4748423;30;20215;-75
2022/05/18 05:46:51;;;;;;;10.03;9.03;;;;;;;23.33;nan;94468.00;4765269;30;20203;-75
2022/05/18 05:49:17;;;;;;;12.40;11.30;;;;;;;23.56;nan;94471.84;4750295;30;20453;-75
2022/05/18 05:51:42;;;;;;;11.93;10.73;;;;;;;23.87;nan;94477.75;4764593;30;20235;-75
2022/05/18 05:54:08;;;;;;;14.80;11.77;;;;;;;23.54;nan;94485.50;4748843;30;20979;-76
2022/05/18 05:56:35;;;;;;;15.57;11.50;;;;;;;23.53;nan;94483.88;4740378;30;20271;-76
2022/05/18 05:59:01;;;;;;;18.63;11.37;;;;;;;23.38;nan;94492.03;4761712;30;20226;-76
2022/05/18 06:01:26;;;;;;;23.20;13.00;;;;;;;23.44;nan;94482.88;4747997;30;20441;-75
2022/05/18 06:03:51;;;;;;;13.53;12.13;;;;;;;23.11;nan;94490.59;4764422;30;20218;-75
2022/05/18 06:06:19;;;;;;;21.27;11.47;;;;;;;23.87;nan;94495.66;4757784;30;20199;-75
2022/05/18 06:08:45;;;;;;;31.87;14.80;;;;;;;23.70;nan;94496.06;4754312;30;20234;-75
2022/05/18 06:11:11;;;;;;;18.07;9.70;;;;;;;23.32;nan;94498.47;4754551;30;20452;-75
2022/05/18 06:13:37;;;;;;;14.70;10.37;;;;;;;22.95;nan;94502.41;4766686;30;20439;-75
2022/05/18 06:16:04;;;;;;;13.23;10.57;;;;;;;23.02;nan;94502.91;4758060;30;20554;-75
2022/05/18 06:18:30;;;;;;;11.77;9.70;;;;;;;22.27;nan;94506.44;4763705;30;20433;-75
2022/05/18 06:20:56;;;;;;;14.00;10.90;;;;;;;22.74;nan;94496.38;4760258;30;20528;-75
2022/05/18 06:23:22;;;;;;;18.70;10.23;;;;;;;22.96;nan;94498.69;4762086;30;20477;-75
2022/05/18 06:25:47;;;;;;;22.13;10.43;;;;;;;23.15;nan;94507.66;4754895;30;20811;-75
2022/05/18 06:28:13;;;;;;;15.57;10.00;;;;;;;22.55;nan;94504.97;4744025;30;20266;-75
2022/05/18 06:30:41;;;;;;;17.07;9.27;;;;;;;22.65;nan;94509.50;4729096;30;20231;-75
2022/05/18 06:33:07;;;;;;;10.43;9.33;;;;;;;23.48;nan;94515.19;4745237;30;20449;-75
2022/05/18 06:35:33;;;;;;;12.37;9.93;;;;;;;23.26;nan;94512.91;4745349;30;20441;-75
2022/05/18 06:37:58;;;;;;;9.53;8.67;;;;;;;23.02;nan;94516.25;4763292;30;20480;-75
2022/05/18 06:43:14;;;;;;;9.67;8.77;;;;;;;23.08;nan;94511.72;4734786;30;20290;-75
2022/05/18 06:45:40;;;;;;;8.87;8.07;;;;;;;23.08;nan;94498.38;4763334;30;20432;-75
2022/05/18 06:48:05;;;;;;;9.60;8.80;;;;;;;23.15;nan;94510.34;4746294;30;20454;-75
2022/05/18 06:50:31;;;;;;;9.37;7.73;;;;;;;23.32;nan;94514.50;4741698;30;20242;-75
2022/05/18 06:52:56;;;;;;;10.17;9.27;;;;;;;23.04;nan;94522.13;4746771;30;20199;-75
2022/05/18 06:55:22;;;;;;;10.93;9.60;;;;;;;23.38;nan;94529.41;4745982;30;20204;-75
2022/05/18 06:57:47;;;;;;;10.77;9.70;;;;;;;22.93;nan;94515.22;4755050;30;20195;-75
2022/05/18 07:00:14;;;;;;;13.53;10.27;;;;;;;23.13;nan;94520.50;4760283;30;20207;-75
2022/05/18 07:02:39;;;;;;;28.07;12.30;;;;;;;22.70;nan;94528.13;4764036;30;20425;-75
2022/05/18 07:05:05;;;;;;;19.00;11.60;;;;;;;23.61;nan;94524.44;4752493;30;20506;-75
2022/05/18 07:07:30;;;;;;;20.83;12.60;;;;;;;23.96;nan;94529.53;4746147;30;20188;-75
2022/05/18 07:09:56;;;;;;;14.00;11.57;;;;;;;24.15;nan;94528.81;4751986;30;20194;-75
2022/05/18 07:12:21;;;;;;;11.93;10.60;;;;;;;24.38;nan;94526.44;4763991;30;20660;-75
2022/05/18 07:14:47;;;;;;;10.53;9.50;;;;;;;24.06;nan;94522.50;4747642;30;20202;-75
2022/05/18 07:17:12;;;;;;;12.70;11.47;;;;;;;23.80;nan;94533.41;4760801;30;20212;-74
2022/05/18 07:19:38;;;;;;;11.50;10.40;;;;;;;24.15;nan;94540.31;4746260;30;20192;-75
2022/05/18 07:22:05;;;;;;;9.07;8.37;;;;;;;23.47;nan;94543.00;4745881;30;20250;-74
2022/05/18 07:24:30;;;;;;;10.20;9.30;;;;;;;23.94;nan;94539.69;4750273;30;20214;-75
2022/05/18 07:26:56;;;;;;;11.63;10.47;;;;;;;23.92;nan;94543.72;4759787;30;20441;-75
2022/05/18 07:29:21;;;;;;;11.27;10.17;;;;;;;24.20;nan;94539.44;4763969;30;20254;-75
2022/05/18 07:34:32;;;;;;;15.57;10.60;;;;;;;24.22;nan;94550.66;4756042;30;20201;-76
2022/05/18 07:36:57;;;;;;;29.20;13.57;;;;;;;24.29;nan;94551.13;4761776;30;20461;-75
2022/05/18 07:39:23;;;;;;;11.30;10.10;;;;;;;24.24;nan;94559.19;4756631;30;20474;-76
2022/05/18 07:41:48;;;;;;;13.33;11.20;;;;;;;24.00;nan;94553.00;4746924;30;20239;-75
2022/05/18 07:44:14;;;;;;;11.57;10.10;;;;;;;24.16;nan;94557.13;4764537;30;20365;-75
2022/05/18 07:46:39;;;;;;;11.17;10.07;;;;;;;24.51;nan;94568.56;4767372;30;20191;-75
2022/05/18 07:49:06;;;;;;;20.03;11.07;;;;;;;24.21;nan;94559.78;4754645;30;20224;-75
2022/05/18 07:51:32;;;;;;;12.40;11.20;;;;;;;25.34;nan;94558.50;4749522;30;20254;-75
2022/05/18 07:53:58;;;;;;;11.50;10.27;;;;;;;24.43;nan;94555.81;4760506;30;20454;-75
2022/05/18 07:56:24;;;;;;;13.47;10.17;;;;;;;25.02;nan;94565.31;4752640;30;20437;-75
2022/05/18 07:58:49;;;;;;;11.87;10.73;;;;;;;25.30;nan;94571.66;4750395;30;20473;-75
2022/05/18 08:01:15;;;;;;;13.63;8.70;;;;;;;24.93;nan;94564.38;4747923;30;20269;-74
2022/05/18 08:03:41;;;;;;;22.97;12.90;;;;;;;25.50;nan;94567.13;4749447;30;20222;-75
2022/05/18 08:06:06;;;;;;;11.77;10.50;;;;;;;25.45;nan;94570.66;4761173;30;20505;-75
2022/05/18 08:08:32;;;;;;;14.57;10.90;;;;;;;25.19;nan;94566.72;4766989;30;20691;-75
2022/05/18 08:16:26;;;;;;;10.90;8.47;;;;;;;26.37;nan;94568.44;4759046;30;20428;-75
2022/05/18 08:18:52;;;;;;;10.17;9.27;;;;;;;26.38;nan;94569.22;4766461;30;20505;-75
2022/05/18 08:21:18;;;;;;;13.30;11.00;;;;;;;25.86;nan;94559.34;4755316;30;20442;-75
2022/05/18 08:23:44;;;;;;;9.60;8.80;;;;;;;25.84;nan;94572.25;4737228;30;20496;-75
2022/05/18 08:26:10;;;;;;;10.97;10.07;;;;;;;25.51;nan;94580.22;4751070;30;20450;-75
2022/05/18 08:28:37;;;;;;;10.10;9.30;;;;;;;25.70;nan;94574.84;4748214;30;20257;-75
2022/05/18 08:31:03;;;;;;;9.13;7.80;;;;;;;24.35;nan;94576.75;4745213;30;20453;-75
2022/05/18 08:33:31;;;;;;;9.50;8.63;;;;;;;25.23;nan;94573.13;4748601;30;20442;-75
2022/05/18 08:35:58;;;;;;;10.00;9.10;;;;;;;25.33;nan;94573.78;4749403;30;20482;-75
2022/05/18 08:38:23;;;;;;;10.53;9.50;;;;;;;25.27;nan;94574.94;4766553;30;20771;-75
2022/05/18 08:40:59;;;;;;;10.60;8.07;;;;;;;25.07;nan;94575.97;4748736;30;20525;-75
2022/05/18 08:43:31;;;;;;;8.20;7.50;;;;;;;25.71;nan;94573.00;4753958;30;20215;-76
2022/05/18 08:46:06;;;;;;;9.30;8.67;;;;;;;25.25;nan;94579.81;4766468;30;20451;-76
2022/05/18 08:48:41;;;;;;;9.07;8.37;;;;;;;25.81;nan;94574.72;4756221;30;20454;-75
2022/05/18 08:51:32;;;;;;;8.00;7.30;;;;;;;26.02;nan;94567.16;4748739;30;20551;-75
2022/05/18 08:54:16;;;;;;;8.87;7.90;;;;;;;26.10;nan;94558.44;4748577;30;20450;-76
2022/05/18 08:56:43;;;;;;;7.53;6.80;;;;;;;24.88;nan;94556.41;4736787;30;20452;-75
2022/05/18 08:59:20;;;;;;;7.47;6.97;;;;;;;25.94;nan;94563.25;4766349;30;20445;-75
2022/05/18 09:01:50;;;;;;;9.33;7.80;;;;;;;25.65;nan;94552.69;4766143;30;20433;-75
2022/05/18 09:04:33;;;;;;;8.50;7.90;;;;;;;26.22;nan;94557.97;4766099;30;20485;-75
2022/05/18 09:07:05;;;;;;;7.93;7.23;;;;;;;26.14;nan;94548.69;4762125;30;20582;-75
2022/05/18 09:12:36;;;;;;;6.80;6.20;;;;;;;25.99;nan;94532.88;4748155;30;20500;-75
2022/05/18 09:15:04;;;;;;;8.40;7.13;;;;;;;26.16;nan;94546.53;4735105;30;20449;-75
2022/05/18 09:17:40;;;;;;;9.37;7.03;;;;;;;26.71;nan;94539.63;4748694;30;20999;-75
2022/05/18 09:20:22;;;;;;;8.83;7.00;;;;;;;26.75;nan;94530.72;4748621;30;20438;-75
2022/05/18 09:23:25;;;;;;;6.93;6.53;;;;;;;27.59;nan;94534.03;4748107;30;20407;-75
2022/05/18 09:26:12;;;;;;;6.50;5.90;;;;;;;26.66;nan;94524.44;4756924;30;20487;-75
2022/05/18 09:28:52;;;;;;;7.40;5.20;;;;;;;26.37;nan;94524.69;4764764;30;20471;-75
2022/05/18 09:31:26;;;;;;;4.50;4.17;;;;;;;26.03;nan;94515.91;4783438;30;20425;-76
2022/05/18 09:34:19;;;;;;;5.50;5.10;;;;;;;27.07;nan;94515.53;4758287;30;20445;-75
2022/05/18 09:37:11;;;;;;;11.53;5.70;;;;;;;27.58;nan;94508.22;4765035;30;20461;-75
2022/05/18 09:39:44;;;;;;;5.97;5.47;;;;;;;27.13;nan;94524.28;4756687;30;20850;-75
2022/05/18 09:42:18;;;;;;;5.10;4.80;;;;;;;28.16;nan;94526.19;4751617;30;20456;-75
2022/05/18 09:45:07;;;;;;;5.60;5.13;;;;;;;27.49;nan;94518.94;4763305;30;20477;-75
2022/05/18 09:47:42;;;;;;;5.40;4.90;;;;;;;26.54;nan;94506.13;4749332;30;20430;-75
2022/05/18 09:50:09;;;;;;;6.10;5.00;;;;;;;27.62;nan;94510.03;4756301;30;21001;-75
2022/05/18 09:52:37;;;;;;;6.57;3.60;;;;;;;26.58;nan;94485.63;4761472;30;20536;-75
2022/05/18 09:55:07;;;;;;;4.90;4.50;;;;;;;26.80;nan;94505.63;4751349;30;20567;-74
2022/05/18 09:57:35;;;;;;;5.30;4.90;;;;;;;26.77;nan;94496.28;4747186;30;20425;-75
2022/05/18 10:00:06;;;;;;;4.80;4.50;;;;;;;26.47;nan;94465.47;4749205;30;20649;-75
2022/05/18 10:08:27;;;;;;;6.67;4.70;;;;;;;26.26;nan;94516.84;4746562;30;20595;-75
2022/05/18 10:10:57;;;;;;;6.23;5.40;;;;;;;26.84;nan;94531.59;4760986;30;20455;-74
2022/05/18 10:13:27;;;;;;;7.83;6.40;;;;;;;26.70;nan;94532.69;4762562;30;20516;-74
2022/05/18 10:16:19;;;;;;;11.03;5.90;;;;;;;26.53;nan;94499.16;4745073;30;20431;-74
2022/05/18 10:18:49;;;;;;;11.23;5.40;;;;;;;25.26;nan;94511.72;4731273;30;20519;-75
2022/05/18 10:21:32;;;;;;;5.77;4.60;;;;;;;25.79;nan;94550.88;4756365;30;20433;-74
2022/05/18 10:23:57;;;;;;;6.97;5.20;;;;;;;25.47;nan;94551.63;4764696;30;20473;-74
2022/05/18 10:26:33;;;;;;;18.80;4.90;;;;;;;24.98;nan;94539.41;4745163;30;20452;-74
2022/05/18 10:29:06;;;;;;;6.40;4.03;;;;;;;24.62;nan;94532.59;4763995;30;20648;-74
2022/05/18 10:32:05;;;;;;;5.03;4.63;;;;;;;26.00;nan;94574.69;4764210;30;20979;-74
2022/05/18 10:34:39;;;;;;;5.40;4.10;;;;;;;24.85;nan;94538.22;4719897;30;20458;-74
2022/05/18 10:37:10;;;;;;;10.80;4.83;;;;;;;25.88;nan;94581.28;4753674;30;20453;-74
2022/05/18 10:39:42;;;;;;;4.87;4.47;;;;;;;25.62;nan;94610.38;4739853;30;20533;-74
2022/05/18 10:42:48;;;;;;;3.20;3.00;;;;;;;25.27;nan;94622.34;4760693;30;20465;-74
2022/05/18 10:45:25;;;;;;;4.93;3.57;;;;;;;24.66;nan;94631.84;4692267;30;20564;-74
2022/05/18 10:47:56;;;;;;;3.90;3.60;;;;;;;25.33;nan;94632.72;4739798;30;20473;-74
2022/05/18 10:50:23;;;;;;;5.93;3.23;;;;;;;25.30;nan;94637.88;4748649;30;20909;-74
2022/05/18 10:52:50;;;;;;;5.57;3.30;;;;;;;24.55;nan;94636.53;4764198;30;20499;-74
2022/05/18 10:55:19;;;;;;;4.27;3.97;;;;;;;23.92;nan;94646.13;4762508;30;20453;-75
2022/05/18 10:58:07;;;;;;;4.10;3.80;;;;;;;23.93;nan;94645.03;4764237;30;20425;-75
2022/05/18 11:01:01;;;;;;;4.23;3.63;;;;;;;23.68;nan;94651.31;4752554;30;20446;-75
2022/05/18 11:03:46;;;;;;;3.60;3.30;;;;;;;24.07;nan;94655.09;4747692;30;20474;-73
2022/05/18 11:06:33;;;;;;;5.47;3.47;;;;;;;24.45;nan;94660.66;4746181;30;20474;-75
2022/05/18 11:09:00;;;;;;;3.53;3.23;;;;;;;23.63;nan;94658.56;4747189;30;20441;-75
2022/05/18 11:11:55;;;;;;;4.13;3.73;;;;;;;24.78;nan;94677.00;4746567;30;21022;-75
2022/05/18 11:14:46;;;;;;;6.90;5.30;;;;;;;24.60;nan;94671.25;4747466;30;20474;-75
2022/05/18 11:17:32;;;;;;;6.80;3.80;;;;;;;24.78;nan;94685.03;4750418;30;20475;-74
2022/05/18 11:20:29;;;;;;;7.60;3.93;;;;;;;24.78;nan;94687.72;4763415;30;20433;-74
2022/05/18 11:22:57;;;;;;;3.50;2.87;;;;;;;23.41;nan;94673.09;4763469;30;20429;-74
2022/05/18 11:25:29;;;;;;;4.00;2.30;;;;;;;24.77;nan;94678.06;4756641;30;20469;-74
2022/05/18 11:28:26;;;;;;;3.13;2.00;;;;;;;25.25;nan;94678.91;4741426;30;20449;-74
2022/05/18 11:31:12;;;;;;;1.60;1.50;;;;;;;25.00;nan;94679.94;4748630;30;20441;-74
2022/05/18 11:34:19;;;;;;;4.63;1.93;;;;;;;24.37;nan;94680.78;4747885;30;20437;-75
2022/05/18 11:37:16;;;;;;;1.90;1.80;;;;;;;24.68;nan;94683.22;4746521;30;20454;-74
2022/05/18 11:40:01;;;;;;;1.57;1.47;;;;;;;24.09;nan;94696.53;4725298;30;20437;-74
2022/05/18 11:42:36;;;;;;;1.30;1.30;;;;;;;23.40;nan;94698.22;4746123;30;20437;-74
2022/05/18 11:45:33;;;;;;;2.07;1.60;;;;;;;23.87;nan;94688.91;4745722;30;20480;-74
2022/05/18 11:48:12;;;;;;;1.60;1.33;;;;;;;25.30;nan;94711.00;4721828;30;20507;-75
2022/05/18 11:51:01;;;;;;;1.30;1.20;;;;;;;24.98;nan;94716.94;4763077;30;20545;-74
2022/05/18 11:53:49;;;;;;;2.20;1.57;;;;;;;24.78;nan;94717.16;4730101;30;20531;-75
2022/05/18 11:56:45;;;;;;;1.30;1.10;;;;;;;24.28;nan;94718.06;4729935;30;20845;-75
2022/05/18 12:02:13;;;;;;;1.33;1.23;;;;;;;25.44;nan;94729.88;4750153;30;20430;-75
2022/05/18 12:04:54;;;;;;;1.50;1.40;;;;;;;26.30;nan;94724.44;4744652;30;20527;-75
2022/05/18 12:07:30;;;;;;;2.13;1.37;;;;;;;25.30;nan;94737.00;4733177;30;21068;-75
2022/05/18 12:10:11;;;;;;;1.10;1.10;;;;;;;24.44;nan;94734.00;4752072;30;20447;-75
2022/05/18 12:12:47;;;;;;;3.67;1.60;;;;;;;24.41;nan;94743.34;4745830;30;20415;-75
2022/05/18 12:15:31;;;;;;;3.00;1.60;;;;;;;25.64;nan;94752.16;4745409;30;20438;-75
2022/05/18 12:18:01;;;;;;;1.77;1.67;;;;;;;23.94;nan;94742.88;4757519;30;20631;-75
2022/05/18 12:20:42;;;;;;;1.90;1.80;;;;;;;24.90;nan;94753.16;4762652;30;20909;-75
2022/05/18 12:23:12;;;;;;;2.40;2.00;;;;;;;25.26;nan;94752.03;4740821;30;20450;-75
2022/05/18 12:25:38;;;;;;;2.53;2.33;;;;;;;23.91;nan;94754.13;4746301;30;21043;-75
2022/05/18 12:28:06;;;;;;;4.23;3.83;;;;;;;23.86;nan;94762.16;4748339;30;20457;-75